Warning: Javascript must be enabled to use all the features on this page!


Page Loading - Please Wait...

* We've detected you're using a mobile device. Find our Next Generation Station Page here.
Click to hideNews Bulletins

Peak Streamflow for the Nation

USGS 02082000 TAR RIVER NEAR NASHVILLE, NC

Nash County, North Carolina
Hydrologic Unit Code 03020101
Latitude  35°50'57", Longitude  77°55'51" NAD27
Drainage area 701.00  square miles
Gage datum 110.96 feet above NGVD29
Output formats
Table
Graph
Tab-separated file
peakfq (watstore) format
Reselect output format
Water
Year
Date Gage
Height
(feet)
Stream-
flow
(cfs)
1919 1919-07 24.50Bd 23,0007,Bd
1929 1929-03-04 14.72 8,960
1930 1929-10-06 16.98 11,100
1931 1931-08-13 11.20 4,850
1932 1932-03-10 13.49 7,240
1933 1933-04-20 10.51 4,360
1934 1934-04-13 15.82 9,480
1935 1934-12-03 20.80 16,900
1936 1936-04-10 15.57 9,220
1937 1937-08-29 15.78 9,560
1938 1938-07-30 15.51 9,200
1939 1939-08-31 15.97 9,800
1940 1940-08-18 17.37 11,700
1941 1940-11-18 10.16 4,140
1942 1942-02-20 9.59 3,720
1943 1942-10-18 11.90 5,540
1944 1944-07-17 11.68 5,460
1945 1945-09-21 20.19 15,500
1946 1946-02-14 12.26 5,970
1947 1947-01-23 9.23 3,490
1948 1948-02-18 15.17 8,520
1949 1948-12-03 12.84 6,420
1950 1949-11-04 9.91 4,030
1951 1951-04-11 8.83 3,260
1952 1952-03-08 13.70 7,200
1953 1952-11-25 13.07 6,600
1954 1954-01-26 14.96 8,600
1955 1955-08-22 16.64 10,400
1956 1956-03-20 12.31 5,870
1957 1957-02-05 14.25 7,700
1958 1958-05-10 17.28 11,400
1959 1959-01-02 12.68 6,230
1960 1960-02-23 12.56 6,140
1961 1961-02-12 11.15 4,960
1962 1962-01-11 14.23 7,700
1963 1963-03-10 11.47 5,200
1964 1964-04-11 11.65 5,320
1965 1964-10-07 12.82 6,340
1966 1966-03-04 11.79 5,430
1967 1967-06-22 10.41 4,390
1968 1968-01-17 10.54 4,480
1969 1969-08-07 11.69 5,350
1970 1970-02-21 11.42 4,820
?
  Peak Gage-Height Qualification Codes.
?
  Peak Streamflow Qualification Codes.